Spacecraft Satellite overpass computed based on SGP4 code. Updated every day at 2:25 LT
Spacecraft : Terra    
         GMT                             Satellite      Satellite     Solar          Solar         Scat ang       
  year-mo-da hr:mn:sc    elevation     azimuth    elevation   azimuth    (bk=180)     
  2020-09-23 09:25:22     64.7            102.1          38.2           161.0         137.1
  2020-09-23 11:02:41     20.5            300.8          39.1           192.3          89.4
  2020-09-23 18:58:22     18.9             58.2         -23.5           301.0        -999.0
  2020-09-23 20:35:38     71.4            257.1         -34.9           325.8        -999.0
Spacecraft : Aqua    
         GMT                             Satellite      Satellite     Solar          Solar         Scat ang       
  year-mo-da hr:mn:sc    elevation     azimuth    elevation   azimuth    (bk=180)     
  2020-09-23 00:00:26     35.1             96.5         -35.7            30.1        -999.0
  2020-09-23 01:38:09     34.0            294.9         -25.0            55.9        -999.0
  2020-09-23 09:33:59     11.3             52.0          38.7           163.7          80.7
  2020-09-23 11:10:51     63.7             71.4          38.8           194.9         111.8
  2020-09-23 12:49:01     18.7            269.8          31.1           223.4         136.5
  2020-09-23 23:04:52     11.8             85.9         -39.4            13.2        -999.0
Spacecraft : CALIPSO    
         GMT                             Satellite      Satellite     Solar          Solar         Scat ang       
  year-mo-da hr:mn:sc    elevation     azimuth    elevation   azimuth    (bk=180)     
  2020-09-23 00:42:17     43.4             98.7         -31.7            41.9        -999.0
  2020-09-23 02:19:31     27.4            297.1         -19.2            65.2        -999.0
  2020-09-23 10:13:34     13.0             54.0          39.7           176.4          75.1
  2020-09-23 11:50:13     76.6             73.1          36.6           207.0         116.8
  2020-09-23 13:28:09     15.2            271.5          26.4           233.2         142.7
  2020-09-23 23:41:46     13.2             87.2         -37.4            24.8        -999.0
Spacecraft : CloudSat    
         GMT                             Satellite      Satellite     Solar          Solar         Scat ang       
  year-mo-da hr:mn:sc    elevation     azimuth    elevation   azimuth    (bk=180)     
  2020-09-23 00:42:37     42.8             98.6         -31.7            42.0        -999.0
  2020-09-23 02:19:51     27.7            297.0         -19.1            65.2        -999.0
  2020-09-23 10:13:55     12.8             53.9          39.8           176.5          74.8
  2020-09-23 11:50:33     75.7             73.0          36.5           207.1         116.0
  2020-09-23 13:28:28     15.3            271.4          26.3           233.3         142.9
  2020-09-23 23:42:05     13.0             87.1         -37.4            24.9        -999.0
Spacecraft : ISS    
         GMT                             Satellite      Satellite     Solar          Solar         Scat ang       
  year-mo-da hr:mn:sc    elevation     azimuth    elevation   azimuth    (bk=180)     
  2020-09-23 15:48:07     19.7            141.6           5.7           262.7          63.2
  2020-09-23 17:24:33     75.4            160.0          -9.4           281.3        -999.0
  2020-09-23 19:01:28     63.9            359.8         -23.9           301.7        -999.0
  2020-09-23 20:38:23     76.7            199.6         -35.1           326.6        -999.0
  2020-09-23 22:14:50     20.2            218.1         -40.0           356.8        -999.0